createdAt,value
2022-07-30T00:01:54.610Z,20.00
2022-07-30T00:04:21.424Z,19.80
2022-07-30T00:06:48.077Z,19.80
2022-07-30T00:09:14.775Z,19.80
2022-07-30T00:11:41.582Z,20.00
2022-07-30T00:14:08.868Z,20.00
2022-07-30T00:16:35.646Z,20.00
2022-07-30T00:19:02.837Z,20.00
2022-07-30T00:21:36.302Z,20.10
2022-07-30T00:24:06.020Z,20.20
2022-07-30T00:26:32.887Z,20.20
2022-07-30T00:28:59.847Z,20.10
2022-07-30T00:31:26.662Z,20.10
2022-07-30T00:33:53.299Z,19.90
2022-07-30T00:36:19.985Z,19.90
2022-07-30T00:38:46.641Z,20.00
2022-07-30T00:41:15.573Z,20.00
2022-07-30T00:43:42.722Z,20.10
2022-07-30T00:46:09.578Z,20.10
2022-07-30T00:48:36.444Z,20.10
2022-07-30T00:51:03.115Z,20.10
2022-07-30T00:53:30.054Z,20.10
2022-07-30T00:55:56.729Z,20.00
2022-07-30T00:58:23.386Z,20.00
2022-07-30T01:00:50.103Z,20.10
2022-07-30T01:03:16.798Z,20.00
2022-07-30T01:05:43.517Z,20.00
2022-07-30T01:08:10.223Z,20.00
2022-07-30T01:10:36.934Z,20.00
2022-07-30T01:13:04.913Z,20.10
2022-07-30T01:15:32.697Z,20.00
2022-07-30T01:18:03.217Z,20.00
2022-07-30T01:20:47.810Z,20.00
2022-07-30T01:23:31.970Z,20.00
2022-07-30T01:26:10.759Z,20.00
2022-07-30T01:28:40.985Z,19.70
2022-07-30T01:31:09.183Z,19.70
2022-07-30T01:33:40.470Z,19.70
2022-07-30T01:36:11.088Z,19.50
2022-07-30T01:38:40.091Z,19.50
2022-07-30T01:41:07.932Z,19.50
2022-07-30T01:43:35.880Z,21.20
2022-07-30T01:46:04.108Z,19.50
2022-07-30T01:48:33.744Z,19.60
2022-07-30T01:51:05.146Z,19.60
2022-07-30T01:53:36.437Z,19.50
2022-07-30T01:56:04.119Z,19.50
2022-07-30T01:58:35.584Z,19.40
2022-07-30T02:01:02.311Z,19.20
2022-07-30T02:03:29.991Z,19.20
2022-07-30T02:06:01.678Z,19.40
2022-07-30T02:08:44.176Z,19.40
2022-07-30T02:11:14.999Z,19.20
2022-07-30T02:13:51.646Z,19.40
2022-07-30T02:16:24.161Z,19.60
2022-07-30T02:19:09.633Z,19.70
2022-07-30T02:21:50.567Z,19.70
2022-07-30T02:24:25.831Z,19.80
2022-07-30T02:26:58.352Z,19.80
2022-07-30T02:29:25.634Z,19.80
2022-07-30T02:31:55.773Z,19.80
2022-07-30T02:34:24.992Z,19.80
2022-07-30T02:36:53.963Z,19.80
2022-07-30T02:39:22.000Z,19.80
2022-07-30T02:41:50.264Z,19.70
2022-07-30T02:44:20.234Z,19.70
2022-07-30T02:46:49.918Z,19.70
2022-07-30T02:49:19.014Z,19.70
2022-07-30T02:51:48.198Z,19.80
2022-07-30T02:54:17.521Z,19.80
2022-07-30T02:56:46.227Z,19.70
2022-07-30T02:59:14.250Z,19.70
2022-07-30T03:01:42.665Z,19.80
2022-07-30T03:04:11.004Z,19.80
2022-07-30T03:06:39.274Z,19.70
2022-07-30T03:09:07.326Z,19.60
2022-07-30T03:11:34.903Z,19.50
2022-07-30T03:14:01.674Z,19.50
2022-07-30T03:16:30.529Z,19.50
2022-07-30T03:18:59.258Z,19.40
2022-07-30T03:21:27.820Z,19.40
2022-07-30T03:23:56.797Z,19.50
2022-07-30T03:26:25.162Z,19.60
2022-07-30T03:28:52.642Z,19.40
2022-07-30T03:31:19.668Z,19.50
2022-07-30T03:33:50.110Z,19.50
2022-07-30T03:36:18.314Z,19.50
2022-07-30T03:38:46.430Z,19.50
2022-07-30T03:41:13.830Z,19.40
2022-07-30T03:43:41.025Z,19.40
2022-07-30T03:46:09.410Z,19.40
2022-07-30T03:48:38.453Z,19.40
2022-07-30T03:51:07.151Z,19.40
2022-07-30T03:53:34.278Z,19.40
2022-07-30T03:56:02.066Z,19.40
2022-07-30T03:58:30.576Z,19.40
2022-07-30T04:01:02.856Z,18.70
2022-07-30T04:03:31.756Z,19.40
2022-07-30T04:05:58.858Z,19.30
2022-07-30T04:08:25.498Z,19.20
2022-07-30T04:10:52.543Z,19.20
2022-07-30T04:13:19.684Z,19.20
2022-07-30T04:16:39.425Z,19.10
2022-07-30T04:19:00.020Z,19.00
2022-07-30T04:21:28.322Z,19.00
2022-07-30T04:24:01.793Z,19.10
2022-07-30T04:26:32.809Z,19.10
2022-07-30T04:29:00.454Z,19.20
2022-07-30T04:31:28.782Z,19.20
2022-07-30T04:33:55.720Z,19.10
2022-07-30T04:36:30.925Z,19.10
2022-07-30T04:38:58.525Z,19.10
2022-07-30T04:41:25.529Z,19.10
2022-07-30T04:43:52.958Z,19.20
2022-07-30T04:46:19.673Z,19.20
2022-07-30T04:48:48.146Z,19.10
2022-07-30T04:51:26.371Z,19.00
2022-07-30T04:53:54.747Z,20.50
2022-07-30T04:56:22.763Z,19.00
2022-07-30T04:58:50.819Z,19.10
2022-07-30T05:01:23.349Z,19.00
2022-07-30T05:04:02.292Z,19.10
2022-07-30T05:06:30.391Z,19.00
2022-07-30T05:08:57.668Z,19.00
2022-07-30T05:11:24.306Z,19.00
2022-07-30T05:13:51.057Z,19.00
2022-07-30T05:16:18.097Z,19.10
2022-07-30T05:18:45.477Z,19.10
2022-07-30T05:21:12.419Z,18.90
2022-07-30T05:23:39.130Z,19.00
2022-07-30T05:26:05.840Z,17.70
2022-07-30T05:28:32.450Z,18.80
2022-07-30T05:30:59.219Z,18.90
2022-07-30T05:33:41.109Z,18.80
2022-07-30T05:36:09.592Z,18.80
2022-07-30T05:38:36.329Z,18.80
2022-07-30T05:41:02.997Z,18.80
2022-07-30T05:43:29.619Z,18.80
2022-07-30T05:45:56.379Z,18.90
2022-07-30T05:48:23.513Z,18.90
2022-07-30T05:50:50.199Z,19.00
2022-07-30T05:53:16.872Z,19.00
2022-07-30T05:55:43.568Z,19.00
2022-07-30T05:58:10.254Z,18.90
2022-07-30T06:00:36.933Z,18.90
2022-07-30T06:03:03.705Z,19.00
2022-07-30T06:05:32.494Z,19.00
2022-07-30T06:07:59.298Z,19.00
2022-07-30T06:10:26.193Z,18.90
2022-07-30T06:12:52.822Z,19.00
2022-07-30T06:15:26.088Z,19.00
2022-07-30T06:18:02.071Z,19.00
2022-07-30T06:20:29.227Z,18.90
2022-07-30T06:22:55.907Z,19.00
2022-07-30T06:25:23.068Z,19.00
2022-07-30T06:27:49.787Z,19.00
2022-07-30T06:30:16.582Z,18.90
2022-07-30T06:32:45.577Z,19.00
2022-07-30T06:35:15.435Z,19.10
2022-07-30T06:38:06.710Z,19.10
2022-07-30T06:40:29.783Z,19.10
2022-07-30T06:42:56.577Z,19.20
2022-07-30T06:45:23.199Z,19.30
2022-07-30T06:47:49.880Z,19.30
2022-07-30T06:50:20.203Z,19.40
2022-07-30T06:52:47.305Z,19.50
2022-07-30T06:55:14.037Z,19.50
2022-07-30T06:57:42.463Z,19.50
2022-07-30T07:00:10.141Z,19.50
2022-07-30T07:02:36.891Z,19.50
2022-07-30T07:05:03.721Z,19.50
2022-07-30T07:07:41.360Z,19.50
2022-07-30T07:10:10.492Z,19.60
2022-07-30T07:12:37.227Z,19.70
2022-07-30T07:15:04.444Z,19.80
2022-07-30T07:17:31.110Z,19.80
2022-07-30T07:19:59.939Z,19.90
2022-07-30T07:22:28.977Z,20.00
2022-07-30T07:24:55.689Z,19.90
2022-07-30T07:27:22.517Z,20.00
2022-07-30T07:30:01.511Z,20.10
2022-07-30T07:32:31.827Z,20.10
2022-07-30T07:34:58.488Z,21.40
2022-07-30T07:37:25.176Z,20.10
2022-07-30T07:39:51.855Z,20.20
2022-07-30T07:42:18.538Z,20.30
2022-07-30T07:44:45.183Z,20.40
2022-07-30T07:47:11.846Z,20.50
2022-07-30T07:49:38.448Z,20.50
2022-07-30T07:52:05.513Z,20.60
2022-07-30T07:54:32.183Z,20.60
2022-07-30T07:56:59.631Z,20.60
2022-07-30T07:59:39.917Z,20.60
2022-07-30T08:02:08.103Z,20.60
2022-07-30T08:04:35.282Z,20.60
2022-07-30T08:07:02.516Z,20.70
2022-07-30T08:09:40.820Z,20.70
2022-07-30T08:12:12.369Z,20.80
2022-07-30T08:14:39.073Z,20.70
2022-07-30T08:17:06.369Z,20.80
2022-07-30T08:19:33.391Z,20.80
2022-07-30T08:22:00.158Z,20.70
2022-07-30T08:24:27.186Z,20.80
2022-07-30T08:26:53.896Z,20.90
2022-07-30T08:29:20.699Z,21.00
2022-07-30T08:31:47.376Z,21.10
2022-07-30T08:34:14.431Z,21.10
2022-07-30T08:36:41.761Z,21.20
2022-07-30T08:39:08.729Z,21.30
2022-07-30T08:41:37.383Z,21.50
2022-07-30T08:44:11.428Z,21.80
2022-07-30T08:46:47.537Z,21.80
2022-07-30T08:49:15.701Z,21.80
2022-07-30T08:51:42.968Z,21.90
2022-07-30T08:54:10.338Z,21.90
2022-07-30T08:56:37.251Z,21.90
2022-07-30T08:59:04.887Z,22.00
2022-07-30T09:01:31.740Z,22.00
2022-07-30T09:03:58.490Z,22.00
2022-07-30T09:06:25.343Z,22.00
2022-07-30T09:08:51.953Z,21.90
2022-07-30T09:11:18.835Z,21.80
2022-07-30T09:13:45.511Z,21.70
2022-07-30T09:16:26.114Z,21.70
2022-07-30T09:18:54.334Z,21.60
2022-07-30T09:21:26.346Z,21.40
2022-07-30T09:24:02.009Z,21.30
2022-07-30T09:26:33.126Z,21.30
2022-07-30T09:29:32.970Z,21.40
2022-07-30T09:32:06.128Z,21.40
2022-07-30T09:34:34.063Z,21.40
2022-07-30T09:37:03.463Z,21.40
2022-07-30T09:39:39.600Z,21.40
2022-07-30T09:42:20.751Z,21.60
2022-07-30T09:44:48.188Z,21.80
2022-07-30T09:47:35.122Z,22.00
2022-07-30T09:50:10.985Z,22.20
2022-07-30T09:52:44.184Z,22.00
2022-07-30T09:55:28.261Z,21.90
2022-07-30T09:57:58.838Z,21.90
2022-07-30T10:00:27.915Z,22.00
2022-07-30T10:02:55.266Z,21.90
2022-07-30T10:05:22.206Z,21.80
2022-07-30T10:07:58.802Z,21.60
2022-07-30T10:10:29.099Z,21.70
2022-07-30T10:13:01.082Z,21.80
2022-07-30T10:15:34.713Z,21.90
2022-07-30T10:18:06.302Z,22.10
2022-07-30T10:20:34.928Z,21.90
2022-07-30T10:23:08.222Z,21.90
2022-07-30T10:25:55.152Z,21.90
2022-07-30T10:28:24.107Z,22.00
2022-07-30T10:30:52.426Z,22.10
2022-07-30T10:33:37.781Z,22.30
2022-07-30T10:36:10.221Z,22.20
2022-07-30T10:38:41.462Z,22.10
2022-07-30T10:41:47.315Z,22.20
2022-07-30T10:44:36.090Z,22.30
2022-07-30T10:47:07.616Z,22.50
2022-07-30T10:49:41.048Z,22.30
2022-07-30T10:52:09.090Z,22.20
2022-07-30T10:54:45.460Z,22.00
2022-07-30T10:57:31.868Z,21.90
2022-07-30T10:59:59.923Z,21.80
2022-07-30T11:02:28.985Z,21.60
2022-07-30T11:05:43.700Z,21.60
2022-07-30T11:08:42.919Z,21.80
2022-07-30T11:11:28.655Z,21.90
2022-07-30T11:14:08.544Z,22.10
2022-07-30T11:16:35.153Z,22.10
2022-07-30T11:19:53.182Z,22.10
2022-07-30T11:22:22.071Z,22.30
2022-07-30T11:24:50.291Z,22.50
2022-07-30T11:27:36.394Z,22.50
2022-07-30T11:30:17.352Z,22.60
2022-07-30T11:32:52.469Z,22.70
2022-07-30T11:35:23.085Z,22.80
2022-07-30T11:38:04.908Z,22.90
2022-07-30T11:40:41.735Z,23.00
2022-07-30T11:43:35.274Z,23.10
2022-07-30T11:46:16.508Z,23.10
2022-07-30T11:49:08.442Z,23.20
2022-07-30T11:51:47.246Z,23.30
2022-07-30T11:54:14.778Z,23.30
2022-07-30T11:56:53.097Z,23.20
2022-07-30T11:59:20.131Z,24.20
2022-07-30T12:01:56.842Z,23.70
2022-07-30T12:04:24.488Z,23.90
2022-07-30T12:06:51.293Z,24.00
2022-07-30T12:09:29.150Z,24.20
2022-07-30T12:11:57.105Z,24.10
2022-07-30T12:14:24.054Z,24.30
2022-07-30T12:16:52.793Z,24.20
2022-07-30T12:19:19.642Z,24.50
2022-07-30T12:21:52.322Z,24.00
2022-07-30T12:24:25.021Z,24.50
2022-07-30T12:26:51.773Z,24.60
2022-07-30T12:29:18.607Z,24.60
2022-07-30T12:31:46.095Z,24.50
2022-07-30T12:34:23.068Z,24.50
2022-07-30T12:36:50.115Z,24.40
2022-07-30T12:39:25.075Z,24.50
2022-07-30T12:41:53.809Z,24.50
2022-07-30T12:44:41.588Z,24.60
2022-07-30T12:47:24.284Z,24.60
2022-07-30T12:49:55.015Z,24.50
2022-07-30T12:52:32.330Z,24.50
2022-07-30T12:55:09.907Z,24.40
2022-07-30T12:58:01.727Z,24.50
2022-07-30T13:00:33.433Z,24.50
2022-07-30T13:03:00.160Z,24.80
2022-07-30T13:06:11.205Z,24.60
2022-07-30T13:08:53.729Z,24.60
2022-07-30T13:11:24.011Z,24.50
2022-07-30T13:13:51.630Z,24.40
2022-07-30T13:16:19.418Z,24.40
2022-07-30T13:18:46.924Z,24.60
2022-07-30T13:21:13.686Z,24.90
2022-07-30T13:23:41.458Z,25.20
2022-07-30T13:26:10.075Z,25.20
2022-07-30T13:28:36.861Z,25.30
2022-07-30T13:31:04.311Z,25.10
2022-07-30T13:33:31.150Z,26.20
2022-07-30T13:35:57.811Z,25.40
2022-07-30T13:38:24.613Z,25.30
2022-07-30T13:40:52.135Z,25.30
2022-07-30T13:43:18.903Z,25.20
2022-07-30T13:45:45.895Z,25.20
2022-07-30T13:48:13.058Z,25.10
2022-07-30T13:50:40.373Z,25.00
2022-07-30T13:53:08.741Z,25.00
2022-07-30T13:55:36.914Z,24.90
2022-07-30T13:58:04.530Z,25.10
2022-07-30T14:00:33.942Z,25.30
2022-07-30T14:03:02.055Z,25.40
2022-07-30T14:05:28.822Z,25.60
2022-07-30T14:07:56.123Z,25.70
2022-07-30T14:10:24.075Z,25.70
2022-07-30T14:12:54.976Z,25.80
2022-07-30T14:15:22.931Z,25.60
2022-07-30T14:17:56.655Z,25.50
2022-07-30T14:20:23.841Z,25.80
2022-07-30T14:22:50.587Z,25.80
2022-07-30T14:25:17.583Z,25.60
2022-07-30T14:27:44.266Z,25.40
2022-07-30T14:30:14.900Z,25.30
2022-07-30T14:32:41.798Z,25.20
2022-07-30T14:35:09.995Z,25.10
2022-07-30T14:37:38.193Z,25.10
2022-07-30T14:40:06.658Z,25.10
2022-07-30T14:42:33.324Z,25.30
2022-07-30T14:45:00.029Z,25.50
2022-07-30T14:47:27.052Z,25.50
2022-07-30T14:49:54.283Z,25.80
2022-07-30T14:52:21.656Z,26.00
2022-07-30T14:54:48.382Z,26.40
2022-07-30T14:57:15.290Z,26.60
2022-07-30T14:59:41.896Z,26.90
2022-07-30T15:02:10.865Z,26.60
2022-07-30T15:04:37.808Z,26.20
2022-07-30T15:07:04.441Z,25.70
2022-07-30T15:09:34.072Z,25.50
2022-07-30T15:12:08.758Z,25.50
2022-07-30T15:14:41.674Z,25.50
2022-07-30T15:17:10.418Z,25.30
2022-07-30T15:19:37.135Z,25.50
2022-07-30T15:22:13.038Z,25.60
2022-07-30T15:24:39.693Z,25.90
2022-07-30T15:27:07.091Z,25.80
2022-07-30T15:29:33.761Z,25.90
2022-07-30T15:32:01.386Z,26.00
2022-07-30T15:34:28.701Z,26.10
2022-07-30T15:36:55.447Z,26.00
2022-07-30T15:39:22.106Z,25.90
2022-07-30T15:41:48.777Z,25.90
2022-07-30T15:44:19.468Z,26.20
2022-07-30T15:46:46.733Z,26.40
2022-07-30T15:49:13.581Z,26.60
2022-07-30T15:51:47.430Z,27.10
2022-07-30T15:54:15.313Z,27.60
2022-07-30T15:56:49.692Z,27.80
2022-07-30T15:59:16.502Z,27.80
2022-07-30T16:01:43.960Z,27.90
2022-07-30T16:04:19.171Z,28.00
2022-07-30T16:06:47.575Z,28.00
2022-07-30T16:09:14.837Z,28.20
2022-07-30T16:11:42.890Z,28.20
2022-07-30T16:14:09.649Z,27.80
2022-07-30T16:16:37.039Z,28.40
2022-07-30T16:19:03.730Z,28.50
2022-07-30T16:21:30.481Z,29.40
2022-07-30T16:23:57.199Z,30.80
2022-07-30T16:26:24.023Z,31.70
2022-07-30T16:28:50.956Z,32.20
2022-07-30T16:31:17.787Z,32.70
2022-07-30T16:33:44.549Z,33.50
2022-07-30T16:36:11.294Z,34.20
2022-07-30T16:38:38.048Z,33.80
2022-07-30T16:41:04.858Z,34.60
2022-07-30T16:43:32.066Z,34.70
2022-07-30T16:45:59.746Z,33.40
2022-07-30T16:48:27.075Z,32.60
2022-07-30T16:50:53.920Z,32.40
2022-07-30T16:53:21.020Z,32.50
2022-07-30T16:55:48.067Z,32.90
2022-07-30T16:58:14.840Z,31.80
2022-07-30T17:00:41.752Z,30.60
2022-07-30T17:03:08.860Z,29.10
2022-07-30T17:05:35.561Z,28.30
2022-07-30T17:08:05.441Z,27.70
2022-07-30T17:10:32.110Z,27.20
2022-07-30T17:12:58.853Z,26.80
2022-07-30T17:15:32.012Z,26.70
2022-07-30T17:18:00.241Z,26.50
2022-07-30T17:20:27.003Z,26.10
2022-07-30T17:22:55.320Z,25.90
2022-07-30T17:25:23.248Z,25.80
2022-07-30T17:27:49.945Z,25.80
2022-07-30T17:30:16.612Z,25.80
2022-07-30T17:32:43.252Z,25.80
2022-07-30T17:35:13.880Z,25.70
2022-07-30T17:37:40.923Z,25.60
2022-07-30T17:40:28.903Z,25.60
2022-07-30T17:42:55.371Z,25.60
2022-07-30T17:45:21.988Z,25.60
2022-07-30T17:47:48.728Z,25.40
2022-07-30T17:50:16.938Z,25.30
2022-07-30T17:52:43.668Z,25.20
2022-07-30T17:55:12.482Z,25.10
2022-07-30T17:57:40.143Z,24.90
2022-07-30T18:00:09.531Z,24.90
2022-07-30T18:02:36.598Z,24.80
2022-07-30T18:05:04.093Z,24.70
2022-07-30T18:07:30.753Z,24.60
2022-07-30T18:09:57.443Z,24.60
2022-07-30T18:12:24.090Z,24.40
2022-07-30T18:14:50.764Z,24.40
2022-07-30T18:17:17.474Z,24.30
2022-07-30T18:19:44.364Z,24.30
2022-07-30T18:22:14.617Z,24.40
2022-07-30T18:24:43.765Z,24.40
2022-07-30T18:27:12.029Z,24.30
2022-07-30T18:29:38.741Z,24.20
2022-07-30T18:32:06.377Z,24.10
2022-07-30T18:34:33.982Z,24.20
2022-07-30T18:37:00.614Z,24.10
2022-07-30T18:39:27.287Z,24.10
2022-07-30T18:41:53.940Z,24.10
2022-07-30T18:44:20.601Z,24.00
2022-07-30T18:46:48.029Z,23.90
2022-07-30T18:49:35.585Z,23.80
2022-07-30T18:52:02.907Z,23.90
2022-07-30T18:54:30.494Z,23.60
2022-07-30T18:56:58.648Z,23.80
2022-07-30T18:59:25.553Z,23.80
2022-07-30T19:01:52.400Z,23.80
2022-07-30T19:04:19.799Z,23.80
2022-07-30T19:06:46.905Z,23.70
2022-07-30T19:09:17.561Z,23.70
2022-07-30T19:11:45.765Z,24.90
2022-07-30T19:14:13.273Z,23.60
2022-07-30T19:16:41.119Z,23.50
2022-07-30T19:19:08.163Z,23.40
2022-07-30T19:21:34.922Z,23.30
2022-07-30T19:24:01.769Z,23.20
2022-07-30T19:26:28.525Z,23.20
2022-07-30T19:28:55.238Z,23.20
2022-07-30T19:31:22.026Z,23.10
2022-07-30T19:33:49.263Z,23.10
2022-07-30T19:36:18.990Z,23.00
2022-07-30T19:38:45.704Z,23.00
2022-07-30T19:41:14.061Z,23.10
2022-07-30T19:43:57.848Z,23.00
2022-07-30T19:46:25.373Z,23.00
2022-07-30T19:48:52.166Z,23.00
2022-07-30T19:51:20.422Z,22.90
2022-07-30T19:53:47.617Z,22.90
2022-07-30T19:56:14.342Z,22.80
2022-07-30T19:58:41.496Z,22.70
2022-07-30T20:01:09.697Z,22.60
2022-07-30T20:03:37.085Z,23.10
2022-07-30T20:06:07.159Z,22.10
2022-07-30T20:08:38.365Z,22.10
2022-07-30T20:11:07.224Z,22.00
2022-07-30T20:13:45.370Z,21.90
2022-07-30T20:16:14.897Z,21.80
2022-07-30T20:18:42.984Z,21.90
2022-07-30T20:21:15.171Z,21.90
2022-07-30T20:23:44.349Z,21.80
2022-07-30T20:26:13.963Z,21.70
2022-07-30T20:28:42.686Z,21.70
2022-07-30T20:31:10.553Z,21.70
2022-07-30T20:33:38.065Z,21.70
2022-07-30T20:36:06.372Z,21.80
2022-07-30T20:38:39.040Z,21.70
2022-07-30T20:41:10.258Z,21.70
2022-07-30T20:43:45.861Z,21.20
2022-07-30T20:46:18.071Z,21.00
2022-07-30T20:48:45.916Z,21.60
2022-07-30T20:51:12.677Z,21.60
2022-07-30T20:53:41.824Z,21.50
2022-07-30T20:56:12.323Z,21.50
2022-07-30T20:58:40.776Z,21.40
2022-07-30T21:01:07.780Z,21.30
2022-07-30T21:03:34.497Z,21.10
2022-07-30T21:06:02.912Z,20.90
2022-07-30T21:08:31.239Z,20.90
2022-07-30T21:10:57.946Z,20.80
2022-07-30T21:13:27.090Z,20.80
2022-07-30T21:16:02.497Z,20.80
2022-07-30T21:18:30.599Z,20.70
2022-07-30T21:20:57.599Z,20.70
2022-07-30T21:23:24.796Z,21.90
2022-07-30T21:26:00.631Z,20.70
2022-07-30T21:28:35.538Z,20.70
2022-07-30T21:31:06.854Z,20.60
2022-07-30T21:33:35.739Z,20.50
2022-07-30T21:36:02.418Z,20.50
2022-07-30T21:38:31.813Z,20.50
2022-07-30T21:40:58.744Z,20.50
2022-07-30T21:43:29.726Z,20.50
2022-07-30T21:45:58.294Z,20.50
2022-07-30T21:48:26.587Z,20.40
2022-07-30T21:50:54.446Z,20.40
2022-07-30T21:53:29.911Z,20.20
2022-07-30T21:56:08.558Z,20.20
2022-07-30T21:58:35.309Z,20.20
2022-07-30T22:01:16.405Z,20.20
2022-07-30T22:04:03.333Z,20.20
2022-07-30T22:06:39.147Z,20.20
2022-07-30T22:09:18.930Z,20.00
2022-07-30T22:11:55.541Z,20.00
2022-07-30T22:14:22.484Z,19.90
2022-07-30T22:16:49.471Z,19.90
2022-07-30T22:19:17.137Z,19.90
2022-07-30T22:21:46.699Z,20.00
2022-07-30T22:24:29.617Z,20.00
2022-07-30T22:27:01.152Z,20.00
2022-07-30T22:29:34.529Z,20.00
2022-07-30T22:32:03.735Z,19.90
2022-07-30T22:34:30.829Z,19.90
2022-07-30T22:36:57.647Z,19.90
2022-07-30T22:39:24.472Z,19.80
2022-07-30T22:42:00.924Z,19.80
2022-07-30T22:44:28.256Z,19.80
2022-07-30T22:46:56.323Z,19.80
2022-07-30T22:49:45.274Z,19.80
2022-07-30T22:52:20.860Z,19.80
2022-07-30T22:54:54.329Z,19.80
2022-07-30T22:57:23.374Z,19.80
2022-07-30T22:59:57.925Z,19.80
2022-07-30T23:02:27.815Z,19.80
2022-07-30T23:04:54.835Z,19.70
2022-07-30T23:07:23.480Z,19.70
2022-07-30T23:09:55.824Z,19.80
2022-07-30T23:12:23.464Z,19.60
2022-07-30T23:14:51.884Z,19.60
2022-07-30T23:17:18.500Z,19.50
2022-07-30T23:19:45.162Z,19.50
2022-07-30T23:22:11.893Z,19.40
2022-07-30T23:24:38.566Z,19.40
2022-07-30T23:27:06.001Z,19.40
2022-07-30T23:29:32.817Z,19.50
2022-07-30T23:31:59.458Z,19.50
2022-07-30T23:34:26.539Z,19.50
2022-07-30T23:36:53.298Z,19.50
2022-07-30T23:39:19.963Z,19.40
2022-07-30T23:41:46.839Z,19.50
2022-07-30T23:44:13.546Z,19.40
2022-07-30T23:46:40.750Z,19.30
2022-07-30T23:49:07.701Z,19.40
2022-07-30T23:51:34.449Z,19.30
2022-07-30T23:54:01.947Z,19.30
2022-07-30T23:56:28.651Z,19.30
2022-07-30T23:58:55.286Z,19.20
